sensor_id;sensor_type;location;lat;lon;timestamp;pressure;altitude;pressure_sealevel;temperature;humidity
18509;BME280;9383;50.928;12.116;2022-08-18T00:00:32;98306.31;;;20.16;70.07
18509;BME280;9383;50.928;12.116;2022-08-18T00:03:05;98304.72;;;20.13;69.80
18509;BME280;9383;50.928;12.116;2022-08-18T00:05:34;98265.59;;;19.88;69.65
18509;BME280;9383;50.928;12.116;2022-08-18T00:08:06;98278.75;;;19.91;69.77
18509;BME280;9383;50.928;12.116;2022-08-18T00:10:33;98305.63;;;20.02;70.07
18509;BME280;9383;50.928;12.116;2022-08-18T00:13:02;98296.84;;;20.00;70.20
18509;BME280;9383;50.928;12.116;2022-08-18T00:15:34;98271.47;;;19.81;70.21
18509;BME280;9383;50.928;12.116;2022-08-18T00:18:03;98294.66;;;19.94;70.65
18509;BME280;9383;50.928;12.116;2022-08-18T00:20:29;98294.44;;;19.86;70.92
18509;BME280;9383;50.928;12.116;2022-08-18T00:22:59;98236.31;;;19.40;71.28
18509;BME280;9383;50.928;12.116;2022-08-18T00:25:25;98206.47;;;19.22;71.68
18509;BME280;9383;50.928;12.116;2022-08-18T00:27:53;98219.25;;;19.30;71.76
18509;BME280;9383;50.928;12.116;2022-08-18T00:30:20;98299.34;;;19.80;72.16
18509;BME280;9383;50.928;12.116;2022-08-18T00:32:52;98282.63;;;19.65;72.31
18509;BME280;9383;50.928;12.116;2022-08-18T00:35:25;98304.25;;;19.75;72.44
18509;BME280;9383;50.928;12.116;2022-08-18T00:37:54;98300.84;;;19.73;72.95
18509;BME280;9383;50.928;12.116;2022-08-18T00:40:31;98245.97;;;19.32;73.20
18509;BME280;9383;50.928;12.116;2022-08-18T00:43:01;98304.75;;;19.69;73.07
18509;BME280;9383;50.928;12.116;2022-08-18T00:45:37;98307.59;;;19.67;72.92
18509;BME280;9383;50.928;12.116;2022-08-18T00:48:09;98307.72;;;19.66;73.14
18509;BME280;9383;50.928;12.116;2022-08-18T00:50:46;98315.88;;;19.64;73.99
18509;BME280;9383;50.928;12.116;2022-08-18T00:53:28;98295.41;;;19.52;73.90
18509;BME280;9383;50.928;12.116;2022-08-18T00:56:06;98310.78;;;19.61;73.91
18509;BME280;9383;50.928;12.116;2022-08-18T00:58:40;98310.91;;;19.60;73.74
18509;BME280;9383;50.928;12.116;2022-08-18T01:01:11;98286.63;;;19.50;73.60
18509;BME280;9383;50.928;12.116;2022-08-18T01:03:41;98258.59;;;19.31;73.52
18509;BME280;9383;50.928;12.116;2022-08-18T01:08:59;98306.66;;;19.57;74.77
18509;BME280;9383;50.928;12.116;2022-08-18T01:11:27;98305.78;;;19.57;74.73
18509;BME280;9383;50.928;12.116;2022-08-18T01:13:58;98299.69;;;19.54;74.78
18509;BME280;9383;50.928;12.116;2022-08-18T01:16:31;98295.28;;;19.53;75.04
18509;BME280;9383;50.928;12.116;2022-08-18T01:19:36;98304.34;;;19.52;74.67
18509;BME280;9383;50.928;12.116;2022-08-18T01:22:59;98300.91;;;19.50;75.34
18509;BME280;9383;50.928;12.116;2022-08-18T01:25:31;98280.44;;;19.38;75.49
18509;BME280;9383;50.928;12.116;2022-08-18T01:28:17;98289.47;;;19.37;75.26
18509;BME280;9383;50.928;12.116;2022-08-18T01:30:52;98298.00;;;19.42;75.36
18509;BME280;9383;50.928;12.116;2022-08-18T01:33:29;98286.06;;;19.35;75.42
18509;BME280;9383;50.928;12.116;2022-08-18T01:36:14;98252.38;;;19.08;75.27
18509;BME280;9383;50.928;12.116;2022-08-18T01:38:50;98301.66;;;19.41;75.39
18509;BME280;9383;50.928;12.116;2022-08-18T01:41:38;98235.31;;;18.97;75.18
18509;BME280;9383;50.928;12.116;2022-08-18T01:44:24;98269.47;;;19.18;75.18
18509;BME280;9383;50.928;12.116;2022-08-18T01:47:11;98257.53;;;19.11;75.33
18509;BME280;9383;50.928;12.116;2022-08-18T01:49:56;98299.63;;;19.33;75.23
18509;BME280;9383;50.928;12.116;2022-08-18T01:52:43;98297.03;;;19.32;75.18
18509;BME280;9383;50.928;12.116;2022-08-18T01:55:11;98252.03;;;19.01;75.30
18509;BME280;9383;50.928;12.116;2022-08-18T01:57:39;98278.75;;;19.14;75.18
18509;BME280;9383;50.928;12.116;2022-08-18T02:00:11;98286.09;;;19.23;75.71
18509;BME280;9383;50.928;12.116;2022-08-18T02:02:39;98290.75;;;19.21;75.80
18509;BME280;9383;50.928;12.116;2022-08-18T02:05:17;98292.81;;;19.18;76.18
18509;BME280;9383;50.928;12.116;2022-08-18T02:07:45;98265.94;;;18.95;76.36
18509;BME280;9383;50.928;12.116;2022-08-18T02:10:12;98292.56;;;19.09;76.39
18509;BME280;9383;50.928;12.116;2022-08-18T02:12:40;98301.00;;;19.05;76.70
18509;BME280;9383;50.928;12.116;2022-08-18T02:15:08;98289.84;;;18.98;77.19
18509;BME280;9383;50.928;12.116;2022-08-18T02:17:41;98297.19;;;18.96;76.91
18509;BME280;9383;50.928;12.116;2022-08-18T02:20:11;98295.59;;;18.93;76.72
18509;BME280;9383;50.928;12.116;2022-08-18T02:22:39;98297.69;;;18.90;76.73
18509;BME280;9383;50.928;12.116;2022-08-18T02:25:06;98301.47;;;18.87;77.03
18509;BME280;9383;50.928;12.116;2022-08-18T02:27:33;98220.69;;;18.33;76.80
18509;BME280;9383;50.928;12.116;2022-08-18T02:30:05;98285.25;;;18.66;77.17
18509;BME280;9383;50.928;12.116;2022-08-18T02:32:32;98298.53;;;18.79;77.17
18509;BME280;9383;50.928;12.116;2022-08-18T02:34:58;98306.84;;;18.76;77.16
18509;BME280;9383;50.928;12.116;2022-08-18T02:37:25;98290.97;;;18.61;77.45
18509;BME280;9383;50.928;12.116;2022-08-18T02:39:51;98300.72;;;18.62;77.45
18509;BME280;9383;50.928;12.116;2022-08-18T02:42:17;98279.72;;;18.56;77.51
18509;BME280;9383;50.928;12.116;2022-08-18T02:44:43;98309.25;;;18.67;77.52
18509;BME280;9383;50.928;12.116;2022-08-18T02:47:10;98244.34;;;18.28;77.55
18509;BME280;9383;50.928;12.116;2022-08-18T02:49:36;98302.19;;;18.66;77.48
18509;BME280;9383;50.928;12.116;2022-08-18T02:52:03;98312.09;;;18.66;77.66
18509;BME280;9383;50.928;12.116;2022-08-18T02:54:29;98307.69;;;18.65;77.60
18509;BME280;9383;50.928;12.116;2022-08-18T02:56:55;98254.59;;;18.34;77.72
18509;BME280;9383;50.928;12.116;2022-08-18T02:59:26;98300.72;;;18.62;77.71
18509;BME280;9383;50.928;12.116;2022-08-18T03:01:54;98288.75;;;18.55;77.84
18509;BME280;9383;50.928;12.116;2022-08-18T03:04:26;98268.03;;;18.46;77.78
18509;BME280;9383;50.928;12.116;2022-08-18T03:06:54;98261.31;;;18.40;77.73
18509;BME280;9383;50.928;12.116;2022-08-18T03:09:21;98245.22;;;18.28;77.78
18509;BME280;9383;50.928;12.116;2022-08-18T03:11:48;98262.06;;;18.42;77.78
18509;BME280;9383;50.928;12.116;2022-08-18T03:14:14;98189.88;;;17.92;77.79
18509;BME280;9383;50.928;12.116;2022-08-18T03:16:46;98283.38;;;18.55;78.02
18509;BME280;9383;50.928;12.116;2022-08-18T03:19:13;98191.38;;;17.96;77.92
18509;BME280;9383;50.928;12.116;2022-08-18T03:21:44;98289.00;;;18.52;78.19
18509;BME280;9383;50.928;12.116;2022-08-18T03:24:11;98290.81;;;18.51;78.18
18509;BME280;9383;50.928;12.116;2022-08-18T03:26:43;98186.94;;;17.83;78.05
18509;BME280;9383;50.928;12.116;2022-08-18T03:29:11;98295.59;;;18.48;78.17
18509;BME280;9383;50.928;12.116;2022-08-18T03:31:38;98289.00;;;18.40;78.12
18509;BME280;9383;50.928;12.116;2022-08-18T03:34:07;98194.38;;;17.80;78.04
18509;BME280;9383;50.928;12.116;2022-08-18T03:36:35;98257.47;;;18.20;78.59
18509;BME280;9383;50.928;12.116;2022-08-18T03:39:06;98295.09;;;18.42;78.70
18509;BME280;9383;50.928;12.116;2022-08-18T03:41:33;98226.81;;;17.99;78.86
18509;BME280;9383;50.928;12.116;2022-08-18T03:44:02;98224.63;;;17.93;78.83
18509;BME280;9383;50.928;12.116;2022-08-18T03:46:28;98276.78;;;18.25;78.82
18509;BME280;9383;50.928;12.116;2022-08-18T03:48:57;98293.16;;;18.33;79.14
18509;BME280;9383;50.928;12.116;2022-08-18T03:51:27;98198.09;;;17.66;78.91
18509;BME280;9383;50.928;12.116;2022-08-18T03:53:57;98282.13;;;18.25;78.96
18509;BME280;9383;50.928;12.116;2022-08-18T03:56:29;98288.25;;;18.27;78.89
18509;BME280;9383;50.928;12.116;2022-08-18T03:59:02;98286.53;;;18.26;78.74
18509;BME280;9383;50.928;12.116;2022-08-18T04:01:32;98285.81;;;18.24;79.15
18509;BME280;9383;50.928;12.116;2022-08-18T04:04:03;98276.50;;;18.17;79.59
18509;BME280;9383;50.928;12.116;2022-08-18T04:06:35;98282.50;;;18.20;79.79
18509;BME280;9383;50.928;12.116;2022-08-18T04:09:08;98277.38;;;18.17;79.75
18509;BME280;9383;50.928;12.116;2022-08-18T04:11:37;98235.22;;;17.83;79.72
18509;BME280;9383;50.928;12.116;2022-08-18T04:14:04;98273.44;;;18.10;79.55
18509;BME280;9383;50.928;12.116;2022-08-18T04:16:32;98219.69;;;17.76;79.88
18509;BME280;9383;50.928;12.116;2022-08-18T04:19:00;98282.22;;;18.12;80.17
18509;BME280;9383;50.928;12.116;2022-08-18T04:21:32;98290.41;;;18.10;80.29
18509;BME280;9383;50.928;12.116;2022-08-18T04:24:00;98197.94;;;17.56;80.06
18509;BME280;9383;50.928;12.116;2022-08-18T04:26:35;98298.56;;;18.09;80.04
18509;BME280;9383;50.928;12.116;2022-08-18T04:29:03;98301.34;;;18.07;80.12
18509;BME280;9383;50.928;12.116;2022-08-18T04:31:30;98204.97;;;17.46;80.14
18509;BME280;9383;50.928;12.116;2022-08-18T04:33:59;98302.47;;;18.05;80.29
18509;BME280;9383;50.928;12.116;2022-08-18T04:36:29;98254.53;;;17.76;80.54
18509;BME280;9383;50.928;12.116;2022-08-18T04:38:57;98280.06;;;17.93;80.36
18509;BME280;9383;50.928;12.116;2022-08-18T04:41:26;98301.59;;;18.04;80.69
18509;BME280;9383;50.928;12.116;2022-08-18T04:43:57;98302.56;;;18.03;80.99
18509;BME280;9383;50.928;12.116;2022-08-18T04:46:27;98287.38;;;17.91;81.25
18509;BME280;9383;50.928;12.116;2022-08-18T04:48:57;98272.84;;;17.82;81.28
18509;BME280;9383;50.928;12.116;2022-08-18T04:51:28;98304.16;;;18.06;81.39
18509;BME280;9383;50.928;12.116;2022-08-18T04:53:56;98300.75;;;18.04;81.65
18509;BME280;9383;50.928;12.116;2022-08-18T04:56:30;98318.94;;;18.11;81.63
18509;BME280;9383;50.928;12.116;2022-08-18T04:59:12;98310.38;;;18.06;81.81
18509;BME280;9383;50.928;12.116;2022-08-18T05:01:43;98322.34;;;18.13;82.16
18509;BME280;9383;50.928;12.116;2022-08-18T05:04:12;98324.94;;;18.15;82.46
18509;BME280;9383;50.928;12.116;2022-08-18T05:06:41;98314.94;;;18.17;82.63
18509;BME280;9383;50.928;12.116;2022-08-18T05:09:11;98327.22;;;18.20;82.64
18509;BME280;9383;50.928;12.116;2022-08-18T05:11:38;98316.75;;;18.17;82.72
18509;BME280;9383;50.928;12.116;2022-08-18T05:14:07;98332.38;;;18.23;83.04
18509;BME280;9383;50.928;12.116;2022-08-18T05:16:35;98333.13;;;18.25;82.99
18509;BME280;9383;50.928;12.116;2022-08-18T05:19:04;98329.47;;;18.26;83.31
18509;BME280;9383;50.928;12.116;2022-08-18T05:21:30;98340.81;;;18.30;83.69
18509;BME280;9383;50.928;12.116;2022-08-18T05:23:58;98345.22;;;18.31;83.73
18509;BME280;9383;50.928;12.116;2022-08-18T05:26:26;98352.03;;;18.35;83.90
18509;BME280;9383;50.928;12.116;2022-08-18T05:28:53;98347.28;;;18.38;83.65
18509;BME280;9383;50.928;12.116;2022-08-18T05:31:23;98348.75;;;18.42;84.04
18509;BME280;9383;50.928;12.116;2022-08-18T05:33:51;98344.63;;;18.50;83.88
18509;BME280;9383;50.928;12.116;2022-08-18T05:36:50;98351.13;;;18.59;83.61
18509;BME280;9383;50.928;12.116;2022-08-18T05:39:51;98279.94;;;18.30;83.91
18509;BME280;9383;50.928;12.116;2022-08-18T05:42:22;98284.25;;;18.44;83.22
18509;BME280;9383;50.928;12.116;2022-08-18T05:44:52;98355.66;;;18.92;82.21
18509;BME280;9383;50.928;12.116;2022-08-18T05:47:27;98361.41;;;18.99;79.73
18509;BME280;9383;50.928;12.116;2022-08-18T05:50:02;98284.63;;;18.51;78.00
18509;BME280;9383;50.928;12.116;2022-08-18T05:55:21;98394.03;;;19.29;77.30
18509;BME280;9383;50.928;12.116;2022-08-18T05:58:23;98309.78;;;18.84;77.47
18509;BME280;9383;50.928;12.116;2022-08-18T06:00:58;98352.03;;;19.28;78.06
18509;BME280;9383;50.928;12.116;2022-08-18T06:03:34;98354.59;;;19.40;77.93
18509;BME280;9383;50.928;12.116;2022-08-18T06:06:13;98331.97;;;19.32;77.86
18509;BME280;9383;50.928;12.116;2022-08-18T06:09:09;98366.41;;;19.61;77.80
18509;BME280;9383;50.928;12.116;2022-08-18T06:11:37;98376.38;;;19.70;77.29
18509;BME280;9383;50.928;12.116;2022-08-18T06:14:04;98396.25;;;19.90;76.95
18509;BME280;9383;50.928;12.116;2022-08-18T06:16:58;98397.59;;;19.96;76.25
18509;BME280;9383;50.928;12.116;2022-08-18T06:19:51;98392.56;;;20.03;75.78
18509;BME280;9383;50.928;12.116;2022-08-18T06:22:52;98360.69;;;19.87;75.50
18509;BME280;9383;50.928;12.116;2022-08-18T06:25:38;98389.84;;;20.14;74.00
18509;BME280;9383;50.928;12.116;2022-08-18T06:28:15;98338.31;;;19.86;72.54
18509;BME280;9383;50.928;12.116;2022-08-18T06:30:55;98331.13;;;19.87;71.59
18509;BME280;9383;50.928;12.116;2022-08-18T06:39:17;98387.31;;;20.34;71.51
18509;BME280;9383;50.928;12.116;2022-08-18T06:41:49;98336.34;;;20.00;70.90
18509;BME280;9383;50.928;12.116;2022-08-18T06:44:28;98394.28;;;20.36;70.18
18509;BME280;9383;50.928;12.116;2022-08-18T06:50:25;98401.84;;;20.43;70.43
18509;BME280;9383;50.928;12.116;2022-08-18T06:52:59;98413.81;;;20.50;70.63
18509;BME280;9383;50.928;12.116;2022-08-18T06:55:46;98416.09;;;20.55;70.46
18509;BME280;9383;50.928;12.116;2022-08-18T07:03:22;98405.47;;;20.53;71.44
18509;BME280;9383;50.928;12.116;2022-08-18T07:08:49;98430.09;;;20.70;71.66
18509;BME280;9383;50.928;12.116;2022-08-18T07:11:29;98430.81;;;20.72;71.68
18509;BME280;9383;50.928;12.116;2022-08-18T07:14:12;98428.59;;;20.77;71.58
18509;BME280;9383;50.928;12.116;2022-08-18T07:16:39;98406.16;;;20.76;71.33
18509;BME280;9383;50.928;12.116;2022-08-18T07:19:16;98366.31;;;20.49;70.79
18509;BME280;9383;50.928;12.116;2022-08-18T07:22:09;98414.09;;;20.89;69.96
18509;BME280;9383;50.928;12.116;2022-08-18T07:24:46;98429.00;;;20.93;69.85
18509;BME280;9383;50.928;12.116;2022-08-18T07:30:27;98407.13;;;20.87;69.76
18509;BME280;9383;50.928;12.116;2022-08-18T07:35:54;98385.00;;;20.72;68.30
18509;BME280;9383;50.928;12.116;2022-08-18T07:41:38;98440.34;;;21.18;68.06
18509;BME280;9383;50.928;12.116;2022-08-18T07:44:33;98350.53;;;20.65;67.97
18509;BME280;9383;50.928;12.116;2022-08-18T07:47:14;98441.38;;;21.27;67.72
18509;BME280;9383;50.928;12.116;2022-08-18T07:49:42;98378.06;;;20.90;67.72
18509;BME280;9383;50.928;12.116;2022-08-18T07:52:35;98443.53;;;21.33;67.71
18509;BME280;9383;50.928;12.116;2022-08-18T07:57:44;98433.19;;;21.39;67.81
18509;BME280;9383;50.928;12.116;2022-08-18T08:00:33;98437.47;;;21.41;67.61
18509;BME280;9383;50.928;12.116;2022-08-18T08:03:22;98434.22;;;21.47;67.70
18509;BME280;9383;50.928;12.116;2022-08-18T08:06:21;98442.19;;;21.49;67.36
18509;BME280;9383;50.928;12.116;2022-08-18T08:08:55;98450.97;;;21.51;67.24
18509;BME280;9383;50.928;12.116;2022-08-18T08:12:01;98448.69;;;21.46;66.96
18509;BME280;9383;50.928;12.116;2022-08-18T08:14:43;98422.56;;;21.37;67.11
18509;BME280;9383;50.928;12.116;2022-08-18T08:17:29;98451.75;;;21.63;66.74
18509;BME280;9383;50.928;12.116;2022-08-18T08:20:17;98448.41;;;21.71;67.32
18509;BME280;9383;50.928;12.116;2022-08-18T08:23:08;98463.03;;;21.78;67.38
18509;BME280;9383;50.928;12.116;2022-08-18T08:28:45;98463.19;;;21.86;65.79
18509;BME280;9383;50.928;12.116;2022-08-18T08:34:16;98467.06;;;21.94;65.86
18509;BME280;9383;50.928;12.116;2022-08-18T08:36:47;98461.97;;;22.00;66.16
18509;BME280;9383;50.928;12.116;2022-08-18T08:39:35;98441.78;;;22.04;66.60
18509;BME280;9383;50.928;12.116;2022-08-18T08:42:41;98410.25;;;21.95;65.93
18509;BME280;9383;50.928;12.116;2022-08-18T08:45:33;98440.09;;;22.13;65.28
18509;BME280;9383;50.928;12.116;2022-08-18T08:48:22;98437.41;;;22.13;64.62
18509;BME280;9383;50.928;12.116;2022-08-18T08:51:23;98434.00;;;22.11;64.98
18509;BME280;9383;50.928;12.116;2022-08-18T08:54:10;98398.88;;;21.91;65.33
18509;BME280;9383;50.928;12.116;2022-08-18T08:56:49;98451.06;;;22.31;65.44
18509;BME280;9383;50.928;12.116;2022-08-18T08:59:19;98457.88;;;22.35;64.58
18509;BME280;9383;50.928;12.116;2022-08-18T09:02:22;98424.47;;;22.27;65.14
18509;BME280;9383;50.928;12.116;2022-08-18T09:05:23;98441.69;;;22.45;64.91
18509;BME280;9383;50.928;12.116;2022-08-18T09:08:45;98439.13;;;22.44;64.31
18509;BME280;9383;50.928;12.116;2022-08-18T09:11:58;98444.22;;;22.47;64.07
18509;BME280;9383;50.928;12.116;2022-08-18T09:21:01;98433.31;;;22.39;63.85
18509;BME280;9383;50.928;12.116;2022-08-18T09:23:39;98446.53;;;22.42;64.59
18509;BME280;9383;50.928;12.116;2022-08-18T09:26:42;98459.03;;;22.53;65.10
18509;BME280;9383;50.928;12.116;2022-08-18T09:38:04;98455.31;;;22.44;66.91
18509;BME280;9383;50.928;12.116;2022-08-18T09:40:57;98449.22;;;22.32;66.81
18509;BME280;9383;50.928;12.116;2022-08-18T09:44:09;98465.25;;;22.43;67.29
18509;BME280;9383;50.928;12.116;2022-08-18T09:49:44;98457.31;;;22.32;68.69
18509;BME280;9383;50.928;12.116;2022-08-18T09:57:25;98437.38;;;22.03;69.60
18509;BME280;9383;50.928;12.116;2022-08-18T10:13:35;98407.16;;;21.59;70.56
18509;BME280;9383;50.928;12.116;2022-08-18T10:16:30;98404.00;;;21.54;70.95
18509;BME280;9383;50.928;12.116;2022-08-18T10:19:57;98369.97;;;21.21;72.12
18509;BME280;9383;50.928;12.116;2022-08-18T10:25:06;98391.53;;;21.21;74.27
18509;BME280;9383;50.928;12.116;2022-08-18T10:27:53;98368.66;;;21.06;75.13
18509;BME280;9383;50.928;12.116;2022-08-18T10:33:05;98324.38;;;20.77;75.61
18509;BME280;9383;50.928;12.116;2022-08-18T10:38:20;98401.56;;;21.10;76.49
18509;BME280;9383;50.928;12.116;2022-08-18T10:41:07;98391.91;;;21.07;76.31
18509;BME280;9383;50.928;12.116;2022-08-18T10:43:48;98413.25;;;21.20;76.06
18509;BME280;9383;50.928;12.116;2022-08-18T10:46:20;98426.34;;;21.25;76.06
18509;BME280;9383;50.928;12.116;2022-08-18T10:49:06;98428.47;;;21.31;76.30
18509;BME280;9383;50.928;12.116;2022-08-18T10:57:21;98449.97;;;21.42;76.22
18509;BME280;9383;50.928;12.116;2022-08-18T11:00:07;98478.63;;;21.43;76.28
18509;BME280;9383;50.928;12.116;2022-08-18T11:03:16;98495.66;;;21.44;76.72
18509;BME280;9383;50.928;12.116;2022-08-18T11:05:46;98483.38;;;21.30;76.94
18509;BME280;9383;50.928;12.116;2022-08-18T11:08:18;98445.41;;;21.12;76.70
18509;BME280;9383;50.928;12.116;2022-08-18T11:10:48;98495.19;;;21.39;76.08
18509;BME280;9383;50.928;12.116;2022-08-18T11:14:14;98485.13;;;21.41;76.50
18509;BME280;9383;50.928;12.116;2022-08-18T11:19:39;98450.75;;;21.33;76.59
18509;BME280;9383;50.928;12.116;2022-08-18T11:22:31;98466.84;;;21.44;77.03
18509;BME280;9383;50.928;12.116;2022-08-18T11:24:59;98435.41;;;21.24;76.85
18509;BME280;9383;50.928;12.116;2022-08-18T11:27:30;98456.06;;;21.44;76.03
18509;BME280;9383;50.928;12.116;2022-08-18T11:30:02;98472.44;;;21.53;76.30
18509;BME280;9383;50.928;12.116;2022-08-18T11:32:37;98416.94;;;21.19;76.50
18509;BME280;9383;50.928;12.116;2022-08-18T11:37:55;98429.75;;;21.27;75.93
18509;BME280;9383;50.928;12.116;2022-08-18T11:40:32;98467.47;;;21.58;75.82
18509;BME280;9383;50.928;12.116;2022-08-18T11:43:31;98473.06;;;21.66;75.71
18509;BME280;9383;50.928;12.116;2022-08-18T11:46:21;98455.78;;;21.69;77.12
18509;BME280;9383;50.928;12.116;2022-08-18T11:48:51;98421.91;;;21.55;77.24
18509;BME280;9383;50.928;12.116;2022-08-18T11:51:27;98438.38;;;21.61;77.70
18509;BME280;9383;50.928;12.116;2022-08-18T11:54:19;98434.13;;;21.59;78.36
18509;BME280;9383;50.928;12.116;2022-08-18T11:56:46;98422.91;;;21.54;79.02
18509;BME280;9383;50.928;12.116;2022-08-18T12:01:53;98402.81;;;21.36;80.41
18509;BME280;9383;50.928;12.116;2022-08-18T12:04:27;98409.91;;;21.38;80.93
18509;BME280;9383;50.928;12.116;2022-08-18T12:06:57;98407.22;;;21.38;81.50
18509;BME280;9383;50.928;12.116;2022-08-18T12:09:38;98415.78;;;21.43;81.24
18509;BME280;9383;50.928;12.116;2022-08-18T12:12:17;98418.47;;;21.43;81.59
18509;BME280;9383;50.928;12.116;2022-08-18T12:17:40;98368.66;;;21.06;81.27
18509;BME280;9383;50.928;12.116;2022-08-18T12:20:08;98405.38;;;21.38;81.41
18509;BME280;9383;50.928;12.116;2022-08-18T12:22:38;98395.09;;;21.22;81.12
18509;BME280;9383;50.928;12.116;2022-08-18T12:25:10;98356.84;;;20.97;80.96
18509;BME280;9383;50.928;12.116;2022-08-18T12:27:37;98422.44;;;21.48;81.29
18509;BME280;9383;50.928;12.116;2022-08-18T12:30:06;98415.78;;;21.53;81.19
18509;BME280;9383;50.928;12.116;2022-08-18T12:32:34;98407.00;;;21.50;80.91
18509;BME280;9383;50.928;12.116;2022-08-18T12:35:02;98416.50;;;21.55;80.88
18509;BME280;9383;50.928;12.116;2022-08-18T12:37:29;98433.56;;;21.55;80.76
18509;BME280;9383;50.928;12.116;2022-08-18T12:39:57;98349.59;;;20.98;81.04
18509;BME280;9383;50.928;12.116;2022-08-18T12:42:25;98428.97;;;21.46;81.58
18509;BME280;9383;50.928;12.116;2022-08-18T12:44:52;98446.59;;;21.60;81.54
18509;BME280;9383;50.928;12.116;2022-08-18T12:47:23;98433.88;;;21.62;81.42
18509;BME280;9383;50.928;12.116;2022-08-18T12:49:51;98428.31;;;21.63;81.23
18509;BME280;9383;50.928;12.116;2022-08-18T12:52:19;98417.41;;;21.65;81.22
18509;BME280;9383;50.928;12.116;2022-08-18T12:54:46;98376.59;;;21.48;81.15
18509;BME280;9383;50.928;12.116;2022-08-18T12:57:24;98414.56;;;21.67;80.90
18509;BME280;9383;50.928;12.116;2022-08-18T12:59:52;98408.19;;;21.68;80.46
18509;BME280;9383;50.928;12.116;2022-08-18T13:02:20;98402.03;;;21.65;80.33
18509;BME280;9383;50.928;12.116;2022-08-18T13:04:47;98396.56;;;21.67;80.26
18509;BME280;9383;50.928;12.116;2022-08-18T13:07:13;98350.91;;;21.44;80.64
18509;BME280;9383;50.928;12.116;2022-08-18T13:09:41;98295.91;;;21.16;80.59
18509;BME280;9383;50.928;12.116;2022-08-18T13:12:09;98375.06;;;21.56;80.55
18509;BME280;9383;50.928;12.116;2022-08-18T13:14:35;98324.91;;;21.24;80.57
18509;BME280;9383;50.928;12.116;2022-08-18T13:17:03;98375.34;;;21.53;80.85
18509;BME280;9383;50.928;12.116;2022-08-18T13:19:29;98386.44;;;21.59;81.38
18509;BME280;9383;50.928;12.116;2022-08-18T13:21:55;98373.22;;;21.56;82.18
18509;BME280;9383;50.928;12.116;2022-08-18T13:24:21;98334.41;;;21.38;81.74
18509;BME280;9383;50.928;12.116;2022-08-18T13:26:49;98363.69;;;21.52;81.97
18509;BME280;9383;50.928;12.116;2022-08-18T13:29:16;98321.06;;;21.36;82.33
18509;BME280;9383;50.928;12.116;2022-08-18T13:31:44;98345.69;;;21.53;82.57
18509;BME280;9383;50.928;12.116;2022-08-18T13:34:11;98289.41;;;21.28;82.22
18509;BME280;9383;50.928;12.116;2022-08-18T13:36:38;98313.72;;;21.38;82.49
18509;BME280;9383;50.928;12.116;2022-08-18T13:39:17;98325.09;;;21.52;82.66
18509;BME280;9383;50.928;12.116;2022-08-18T13:41:47;98326.38;;;21.57;82.99
18509;BME280;9383;50.928;12.116;2022-08-18T13:44:15;98326.50;;;21.56;82.56
18509;BME280;9383;50.928;12.116;2022-08-18T13:46:44;98328.22;;;21.57;82.24
18509;BME280;9383;50.928;12.116;2022-08-18T13:49:20;98252.22;;;21.12;81.71
18509;BME280;9383;50.928;12.116;2022-08-18T13:51:50;98340.22;;;21.74;81.27
18509;BME280;9383;50.928;12.116;2022-08-18T13:54:28;98347.88;;;21.78;81.37
18509;BME280;9383;50.928;12.116;2022-08-18T13:56:55;98298.72;;;21.55;81.08
18509;BME280;9383;50.928;12.116;2022-08-18T13:59:22;98323.31;;;21.82;80.98
18509;BME280;9383;50.928;12.116;2022-08-18T14:01:50;98317.50;;;21.86;80.87
18509;BME280;9383;50.928;12.116;2022-08-18T14:04:18;98316.38;;;21.89;80.65
18509;BME280;9383;50.928;12.116;2022-08-18T14:06:45;98310.81;;;21.90;80.86
18509;BME280;9383;50.928;12.116;2022-08-18T14:09:11;98287.13;;;21.74;80.89
18509;BME280;9383;50.928;12.116;2022-08-18T14:11:38;98287.38;;;21.71;80.74
18509;BME280;9383;50.928;12.116;2022-08-18T14:14:05;98272.47;;;21.67;80.42
18509;BME280;9383;50.928;12.116;2022-08-18T14:16:32;98347.63;;;22.11;80.38
18509;BME280;9383;50.928;12.116;2022-08-18T14:19:00;98335.25;;;22.09;80.38
18509;BME280;9383;50.928;12.116;2022-08-18T14:21:49;98305.69;;;21.97;80.13
18509;BME280;9383;50.928;12.116;2022-08-18T14:24:35;98297.03;;;22.03;80.04
18509;BME280;9383;50.928;12.116;2022-08-18T14:27:28;98353.00;;;22.51;78.72
18509;BME280;9383;50.928;12.116;2022-08-18T14:29:56;98316.88;;;22.42;78.20
18509;BME280;9383;50.928;12.116;2022-08-18T14:32:24;98343.31;;;22.68;76.45
18509;BME280;9383;50.928;12.116;2022-08-18T14:35:01;98331.63;;;22.77;76.54
18509;BME280;9383;50.928;12.116;2022-08-18T14:37:29;98331.88;;;22.84;75.24
18509;BME280;9383;50.928;12.116;2022-08-18T14:39:56;98327.31;;;22.84;74.39
18509;BME280;9383;50.928;12.116;2022-08-18T14:42:23;98317.50;;;22.83;74.48
18509;BME280;9383;50.928;12.116;2022-08-18T14:44:50;98250.66;;;22.47;73.49
18509;BME280;9383;50.928;12.116;2022-08-18T14:47:16;98264.97;;;22.68;73.79
18509;BME280;9383;50.928;12.116;2022-08-18T14:49:43;98278.69;;;22.84;73.78
18509;BME280;9383;50.928;12.116;2022-08-18T14:52:11;98314.00;;;23.11;73.26
18509;BME280;9383;50.928;12.116;2022-08-18T14:54:38;98284.84;;;23.04;73.33
18509;BME280;9383;50.928;12.116;2022-08-18T14:57:05;98302.28;;;23.20;72.79
18509;BME280;9383;50.928;12.116;2022-08-18T14:59:34;98299.69;;;23.28;72.41
18509;BME280;9383;50.928;12.116;2022-08-18T15:02:00;98297.16;;;23.27;72.24
18509;BME280;9383;50.928;12.116;2022-08-18T15:04:27;98296.91;;;23.38;72.66
18509;BME280;9383;50.928;12.116;2022-08-18T15:06:53;98267.09;;;23.30;72.69
18509;BME280;9383;50.928;12.116;2022-08-18T15:09:19;98297.94;;;23.55;71.45
18509;BME280;9383;50.928;12.116;2022-08-18T15:11:47;98211.72;;;23.06;71.71
18509;BME280;9383;50.928;12.116;2022-08-18T15:14:14;98289.94;;;23.64;71.03
18509;BME280;9383;50.928;12.116;2022-08-18T15:16:43;98282.81;;;23.63;71.06
18509;BME280;9383;50.928;12.116;2022-08-18T15:19:09;98258.94;;;23.58;70.81
18509;BME280;9383;50.928;12.116;2022-08-18T15:21:37;98313.06;;;23.94;69.52